Time;durP1;ratioP1;P1;durP2;ratioP2;P2;SDS_P1;SDS_P2;PMS_P1;PMS_P2;Temp;Humidity;BMP_temperature;BMP_pressure;BME280_temperature;BME280_humidity;BME280_pressure;Samples;Min_cycle;Max_cycle;Signal;HPM_P1;HPM_P2
2022/01/14 00:01:49;;;;;;;143.07;34.80;;;6.20;99.90;;;;;;5026592;28;20498;-76
2022/01/14 00:04:16;;;;;;;136.23;35.40;;;6.20;99.90;;;;;;5033764;28;20037;-76
2022/01/14 00:06:42;;;;;;;134.80;33.80;;;6.20;99.90;;;;;;5042194;28;20426;-76
2022/01/14 00:09:11;;;;;;;144.47;35.03;;;6.20;99.90;;;;;;5024560;28;20128;-76
2022/01/14 00:11:45;;;;;;;131.73;35.10;;;6.20;99.90;;;;;;5026805;28;20099;-77
2022/01/14 00:14:22;;;;;;;118.13;32.60;;;6.30;99.90;;;;;;5040242;28;20514;-76
2022/01/14 00:16:48;;;;;;;115.03;32.00;;;6.20;99.90;;;;;;5016936;28;20045;-76
2022/01/14 00:19:16;;;;;;;114.80;32.03;;;6.20;99.90;;;;;;5045598;28;20048;-77
2022/01/14 00:21:43;;;;;;;116.63;33.33;;;6.20;99.90;;;;;;5044602;28;20049;-77
2022/01/14 00:24:25;;;;;;;104.13;31.67;;;6.30;99.90;;;;;;5034347;28;20049;-75
2022/01/14 00:32:08;;;;;;;95.97;31.20;;;6.30;99.90;;;;;;5027452;28;20065;-76
2022/01/14 00:34:36;;;;;;;98.07;31.03;;;6.30;99.90;;;;;;5033298;28;20126;-76
2022/01/14 00:37:02;;;;;;;102.93;31.27;;;6.30;99.90;;;;;;5023691;28;20140;-76
2022/01/14 00:39:28;;;;;;;102.23;32.43;;;6.30;99.90;;;;;;5027679;28;20046;-77
2022/01/14 00:41:54;;;;;;;95.23;31.20;;;6.30;99.90;;;;;;5050520;28;20056;-77
2022/01/14 00:44:20;;;;;;;89.57;30.83;;;6.30;99.90;;;;;;5042178;28;20045;-77
2022/01/14 00:46:47;;;;;;;88.97;31.57;;;6.30;99.90;;;;;;5034892;28;20052;-76
2022/01/14 00:49:14;;;;;;;95.30;32.93;;;6.30;99.90;;;;;;5029475;28;20044;-76
2022/01/14 00:51:42;;;;;;;103.73;33.37;;;6.30;99.90;;;;;;5052122;28;20486;-74
2022/01/14 00:54:09;;;;;;;104.40;32.77;;;6.30;99.90;;;;;;5027986;28;20045;-76
2022/01/14 00:59:16;;;;;;;85.00;31.13;;;6.30;99.90;;;;;;5047577;28;20045;-77
2022/01/14 01:01:43;;;;;;;110.30;34.67;;;6.30;99.90;;;;;;5045121;28;20045;-76
2022/01/14 01:04:10;;;;;;;107.03;33.77;;;6.30;99.90;;;;;;5027737;28;20041;-77
2022/01/14 01:06:36;;;;;;;110.27;34.77;;;6.30;99.90;;;;;;5031498;28;20049;-76
2022/01/14 01:09:09;;;;;;;116.87;34.80;;;6.30;99.90;;;;;;5023304;28;20060;-76
2022/01/14 01:11:38;;;;;;;104.93;34.23;;;6.30;99.90;;;;;;5050954;28;20037;-77
2022/01/14 01:14:10;;;;;;;97.03;33.53;;;6.40;99.90;;;;;;5028270;28;20046;-76
2022/01/14 01:16:36;;;;;;;90.43;32.53;;;6.30;99.90;;;;;;5051650;28;20049;-76
2022/01/14 01:19:02;;;;;;;98.90;32.63;;;6.30;99.90;;;;;;5043457;28;20053;-76
2022/01/14 01:21:28;;;;;;;91.37;32.30;;;6.30;99.90;;;;;;5026335;28;20050;-76
2022/01/14 01:23:54;;;;;;;94.87;33.87;;;6.30;99.90;;;;;;5046543;28;20549;-77
2022/01/14 01:26:30;;;;;;;91.17;33.37;;;6.30;99.90;;;;;;5026155;28;20635;-77
2022/01/14 01:31:35;;;;;;;86.63;32.77;;;6.30;99.90;;;;;;5041477;28;20051;-76
2022/01/14 01:34:01;;;;;;;88.23;31.07;;;6.40;99.90;;;;;;5025846;28;20461;-76
2022/01/14 01:36:26;;;;;;;88.57;32.00;;;6.40;99.90;;;;;;5051218;28;20041;-76
2022/01/14 01:38:52;;;;;;;81.37;31.40;;;6.40;99.90;;;;;;5020524;28;20045;-77
2022/01/14 01:41:18;;;;;;;77.53;31.47;;;6.40;99.90;;;;;;5030609;28;20048;-77
2022/01/14 01:43:50;;;;;;;84.17;31.27;;;6.40;99.90;;;;;;5029446;28;20095;-76
2022/01/14 01:46:16;;;;;;;88.87;33.43;;;6.40;99.90;;;;;;5028578;28;20063;-76
2022/01/14 01:48:42;;;;;;;83.77;30.83;;;6.40;99.90;;;;;;5019654;28;20036;-76
2022/01/14 01:51:08;;;;;;;90.10;32.80;;;6.40;99.90;;;;;;5007758;28;20045;-77
2022/01/14 01:53:34;;;;;;;85.77;32.00;;;6.40;99.90;;;;;;5033738;28;20040;-77
2022/01/14 01:56:00;;;;;;;85.87;32.23;;;6.40;99.90;;;;;;5024870;28;20141;-76
2022/01/14 01:58:26;;;;;;;81.87;32.03;;;6.40;99.90;;;;;;5021999;28;20053;-76
2022/01/14 02:00:53;;;;;;;83.83;31.33;;;6.40;99.90;;;;;;5028728;28;20070;-76
2022/01/14 02:03:19;;;;;;;84.13;31.83;;;6.40;99.90;;;;;;5022894;28;20049;-77
2022/01/14 02:05:45;;;;;;;82.60;32.23;;;6.40;99.90;;;;;;5045207;28;20045;-77
2022/01/14 02:08:10;;;;;;;90.90;32.73;;;6.40;99.90;;;;;;5041057;28;20041;-77
2022/01/14 02:10:38;;;;;;;87.23;32.43;;;6.40;99.90;;;;;;5025688;28;20099;-77
2022/01/14 02:13:04;;;;;;;78.73;31.13;;;6.40;99.90;;;;;;5047016;28;20041;-76
2022/01/14 02:15:49;;;;;;;89.20;32.13;;;6.40;99.90;;;;;;5033284;28;20545;-76
2022/01/14 02:24:07;;;;;;;82.50;33.43;;;6.40;99.90;;;;;;5032838;28;20059;-76
2022/01/14 02:26:40;;;;;;;84.43;33.35;;;6.40;99.90;;;;;;5025409;28;20376;-77
2022/01/14 02:29:06;;;;;;;82.10;32.23;;;6.40;99.90;;;;;;5027373;28;20406;-76
2022/01/14 02:31:32;;;;;;;86.30;33.50;;;6.40;99.90;;;;;;5040123;28;20052;-76
2022/01/14 02:33:57;;;;;;;83.83;31.03;;;6.40;99.90;;;;;;5042513;28;20056;-76
2022/01/14 02:36:25;;;;;;;82.50;31.80;;;6.40;99.90;;;;;;5015380;28;20041;-77
2022/01/14 02:38:51;;;;;;;87.10;33.47;;;6.40;99.90;;;;;;5043261;28;20437;-77
2022/01/14 02:41:18;;;;;;;84.80;32.87;;;6.40;99.90;;;;;;5044528;28;20128;-76
2022/01/14 02:43:44;;;;;;;79.63;32.97;;;6.40;99.90;;;;;;5047659;28;20088;-75
2022/01/14 02:46:10;;;;;;;77.27;32.37;;;6.40;99.90;;;;;;5036162;28;20487;-77
2022/01/14 02:48:36;;;;;;;90.40;33.33;;;6.40;99.90;;;;;;5048107;28;20049;-77
2022/01/14 02:51:09;;;;;;;85.97;33.97;;;6.40;99.90;;;;;;5026064;28;20048;-76
2022/01/14 02:56:07;;;;;;;95.97;34.97;;;6.40;99.90;;;;;;5021585;28;20049;-77
2022/01/14 02:58:34;;;;;;;94.07;34.60;;;6.40;99.90;;;;;;5007314;28;20381;-77
2022/01/14 03:01:04;;;;;;;84.40;35.43;;;6.40;99.90;;;;;;5023994;28;20095;-77
2022/01/14 03:03:31;;;;;;;84.10;34.73;;;6.40;99.90;;;;;;5040834;28;20068;-77
2022/01/14 03:05:57;;;;;;;85.63;34.00;;;6.40;99.90;;;;;;5020645;28;20042;-77
2022/01/14 03:08:23;;;;;;;75.17;34.47;;;6.40;99.90;;;;;;4998635;28;20045;-76
2022/01/14 03:10:55;;;;;;;78.73;35.60;;;6.40;99.90;;;;;;5034398;28;20130;-75
2022/01/14 03:13:21;;;;;;;90.70;35.80;;;6.40;99.90;;;;;;5046805;28;20067;-77
2022/01/14 03:15:47;;;;;;;87.27;35.37;;;6.40;99.90;;;;;;5027131;28;20483;-76
2022/01/14 03:18:16;;;;;;;82.77;35.87;;;6.40;99.90;;;;;;5029957;28;20128;-76
2022/01/14 03:20:52;;;;;;;81.33;36.20;;;6.40;99.90;;;;;;5020587;28;20568;-77
2022/01/14 03:23:19;;;;;;;79.67;35.67;;;6.40;99.90;;;;;;5013871;28;20041;-76
2022/01/14 03:25:48;;;;;;;78.07;34.70;;;6.40;99.90;;;;;;5031237;28;20045;-78
2022/01/14 03:28:17;;;;;;;79.87;34.93;;;6.40;99.90;;;;;;5018865;28;20049;-77
2022/01/14 03:30:43;;;;;;;86.83;35.57;;;6.40;99.90;;;;;;5016554;28;20057;-76
2022/01/14 03:33:09;;;;;;;80.30;35.30;;;6.40;99.90;;;;;;5045361;28;20051;-77
2022/01/14 03:35:35;;;;;;;83.47;35.40;;;6.40;99.90;;;;;;5020478;28;20056;-75
2022/01/14 03:38:01;;;;;;;82.60;36.13;;;6.40;99.90;;;;;;5052295;28;20040;-77
2022/01/14 03:40:26;;;;;;;82.23;36.23;;;6.40;99.90;;;;;;5019421;28;20036;-77
2022/01/14 03:42:52;;;;;;;81.57;35.83;;;6.40;99.90;;;;;;5032016;28;20395;-76
2022/01/14 03:45:19;;;;;;;80.57;33.43;;;6.40;99.90;;;;;;5007348;28;20499;-76
2022/01/14 03:47:45;;;;;;;82.87;34.70;;;6.40;99.90;;;;;;4998281;28;20054;-77
2022/01/14 03:50:11;;;;;;;74.70;32.20;;;6.30;99.90;;;;;;5044500;28;20045;-76
2022/01/14 03:52:37;;;;;;;88.17;34.03;;;6.40;99.90;;;;;;5028235;28;20044;-76
2022/01/14 03:55:03;;;;;;;84.13;34.13;;;6.30;99.90;;;;;;5022154;28;20570;-77
2022/01/14 03:57:29;;;;;;;77.53;33.60;;;6.40;99.90;;;;;;5028994;28;20079;-76
2022/01/14 03:59:55;;;;;;;87.67;34.27;;;6.30;99.90;;;;;;5020911;28;20088;-76
2022/01/14 04:02:22;;;;;;;84.53;32.70;;;6.30;99.90;;;;;;5018281;28;20151;-76
2022/01/14 04:04:47;;;;;;;91.30;33.60;;;6.30;99.90;;;;;;5027848;28;20132;-76
2022/01/14 04:07:13;;;;;;;84.83;34.73;;;6.30;99.90;;;;;;5029290;28;20120;-77
2022/01/14 04:09:40;;;;;;;84.63;33.47;;;6.30;99.90;;;;;;5046940;28;20049;-76
2022/01/14 04:12:09;;;;;;;86.57;34.17;;;6.30;99.90;;;;;;5042922;28;20073;-77
2022/01/14 04:17:02;;;;;;;81.70;33.47;;;6.30;99.90;;;;;;5020772;28;20441;-77
2022/01/14 04:19:29;;;;;;;80.67;33.67;;;6.30;99.90;;;;;;5027555;28;20040;-77
2022/01/14 04:21:55;;;;;;;85.30;33.73;;;6.30;99.90;;;;;;5032565;28;20053;-76
2022/01/14 04:24:21;;;;;;;75.37;33.13;;;6.30;99.90;;;;;;5043859;28;20041;-77
2022/01/14 04:26:47;;;;;;;81.50;34.13;;;6.30;99.90;;;;;;5031799;28;20103;-76
2022/01/14 04:29:13;;;;;;;88.60;34.87;;;6.30;99.90;;;;;;5026955;28;20049;-78
2022/01/14 04:31:39;;;;;;;83.07;33.20;;;6.20;99.90;;;;;;5050227;28;20045;-76
2022/01/14 04:34:05;;;;;;;81.93;33.93;;;6.20;99.90;;;;;;5048338;28;20059;-77
2022/01/14 04:36:32;;;;;;;77.13;33.60;;;6.20;99.90;;;;;;5015557;28;20537;-77
2022/01/14 04:38:58;;;;;;;80.67;33.60;;;6.30;99.90;;;;;;5048658;28;20053;-76
2022/01/14 04:41:24;;;;;;;83.77;32.97;;;6.30;99.90;;;;;;5028395;28;20041;-77
2022/01/14 04:43:49;;;;;;;75.50;32.97;;;6.30;99.90;;;;;;5049741;28;20049;-76
2022/01/14 04:48:53;;;;;;;81.03;33.23;;;6.20;99.90;;;;;;5050775;28;20499;-77
2022/01/14 04:51:21;;;;;;;75.37;33.70;;;6.20;99.90;;;;;;5024741;28;20060;-77
2022/01/14 04:53:48;;;;;;;79.00;33.83;;;6.20;99.90;;;;;;5046920;28;20037;-77
2022/01/14 04:56:14;;;;;;;78.87;34.03;;;6.20;99.90;;;;;;5025776;28;20128;-76
2022/01/14 04:58:40;;;;;;;75.93;32.63;;;6.20;99.90;;;;;;5031130;28;20155;-77
2022/01/14 05:01:06;;;;;;;81.70;35.03;;;6.20;99.90;;;;;;5022787;28;20503;-77
2022/01/14 05:03:32;;;;;;;79.77;34.03;;;6.20;99.90;;;;;;5049620;28;20045;-77
2022/01/14 05:06:00;;;;;;;67.57;32.40;;;6.20;99.90;;;;;;5038288;28;20044;-77
2022/01/14 05:08:35;;;;;;;70.97;33.10;;;6.20;99.90;;;;;;5026251;28;20099;-76
2022/01/14 05:11:19;;;;;;;68.70;32.23;;;6.20;99.90;;;;;;5046145;28;20446;-76
2022/01/14 05:13:46;;;;;;;66.47;31.63;;;6.20;99.90;;;;;;5022365;28;20156;-77
2022/01/14 05:16:11;;;;;;;68.97;33.07;;;6.20;99.90;;;;;;5038096;28;20128;-76
2022/01/14 05:18:38;;;;;;;68.47;32.60;;;6.10;99.90;;;;;;5040939;28;20529;-77
2022/01/14 05:21:04;;;;;;;69.57;32.87;;;6.10;99.90;;;;;;5041681;28;20045;-77
2022/01/14 05:23:29;;;;;;;63.70;31.33;;;6.10;99.90;;;;;;5026725;28;20588;-77
2022/01/14 05:25:55;;;;;;;67.73;32.73;;;6.10;99.90;;;;;;5042588;28;20076;-76
2022/01/14 05:28:22;;;;;;;76.43;33.20;;;6.10;99.90;;;;;;5027728;28;20406;-75
2022/01/14 05:30:48;;;;;;;78.47;32.50;;;6.10;99.90;;;;;;5037780;28;20508;-77
2022/01/14 05:33:18;;;;;;;66.90;32.37;;;6.10;99.90;;;;;;5031699;28;20141;-77
2022/01/14 05:35:44;;;;;;;66.70;31.43;;;6.10;99.90;;;;;;5027153;28;20083;-76
2022/01/14 05:38:10;;;;;;;64.00;30.80;;;6.10;99.90;;;;;;5014194;28;20411;-77
2022/01/14 05:40:35;;;;;;;65.60;31.83;;;6.10;99.90;;;;;;5034760;28;20048;-77
2022/01/14 05:43:01;;;;;;;66.17;30.93;;;6.10;99.90;;;;;;5023483;28;20533;-78
2022/01/14 05:45:28;;;;;;;58.10;30.87;;;6.10;99.90;;;;;;5033977;28;20049;-77
2022/01/14 05:47:54;;;;;;;62.53;31.03;;;6.10;99.90;;;;;;5009464;28;20099;-77
2022/01/14 05:50:22;;;;;;;55.97;29.50;;;6.10;99.90;;;;;;5030123;28;20045;-77
2022/01/14 05:52:49;;;;;;;62.77;28.83;;;6.10;99.90;;;;;;5030586;28;20049;-77
2022/01/14 05:55:16;;;;;;;60.50;30.57;;;6.00;99.90;;;;;;5046921;28;20049;-77
2022/01/14 05:57:43;;;;;;;58.57;30.63;;;6.00;99.90;;;;;;5048163;28;20552;-78
2022/01/14 06:00:11;;;;;;;59.07;29.93;;;6.00;99.90;;;;;;5044882;28;20047;-76
2022/01/14 06:02:44;;;;;;;56.83;28.88;;;6.00;99.90;;;;;;5036369;28;20049;-76
2022/01/14 06:05:10;;;;;;;59.47;29.40;;;6.00;99.90;;;;;;5029366;28;20052;-77
2022/01/14 06:07:36;;;;;;;57.40;29.90;;;6.00;99.90;;;;;;5038324;28;20048;-78
2022/01/14 06:10:02;;;;;;;59.00;29.77;;;6.00;99.90;;;;;;5045485;28;20059;-77
2022/01/14 06:12:28;;;;;;;62.47;31.57;;;5.90;99.90;;;;;;5022377;28;20136;-78
2022/01/14 06:14:53;;;;;;;66.73;30.63;;;6.00;99.90;;;;;;5048575;28;20045;-77
2022/01/14 06:17:19;;;;;;;59.73;30.73;;;5.90;99.90;;;;;;5028607;28;20045;-77
2022/01/14 06:19:46;;;;;;;61.63;29.83;;;6.00;99.90;;;;;;5044824;28;20083;-77
2022/01/14 06:22:12;;;;;;;60.77;31.37;;;5.90;99.90;;;;;;5021512;28;20526;-76
2022/01/14 06:24:38;;;;;;;63.57;30.57;;;5.90;99.90;;;;;;5044376;28;20057;-77
2022/01/14 06:27:04;;;;;;;62.20;31.23;;;6.00;99.90;;;;;;5005750;28;20542;-77
2022/01/14 06:29:29;;;;;;;67.43;31.20;;;5.90;99.90;;;;;;5028881;28;20049;-77
2022/01/14 06:31:55;;;;;;;58.40;30.83;;;6.00;99.90;;;;;;5040741;28;20068;-77
2022/01/14 06:34:21;;;;;;;64.60;32.97;;;6.00;99.90;;;;;;5026324;28;20045;-76
2022/01/14 06:36:48;;;;;;;62.07;33.37;;;6.00;99.90;;;;;;5026739;28;20511;-76
2022/01/14 06:39:13;;;;;;;63.87;32.10;;;6.00;99.90;;;;;;5033523;28;20415;-77
2022/01/14 06:41:39;;;;;;;60.57;31.20;;;6.00;99.90;;;;;;5035130;28;20048;-77
2022/01/14 06:44:06;;;;;;;66.67;32.73;;;6.00;99.90;;;;;;5034960;28;20447;-76
2022/01/14 06:46:31;;;;;;;63.60;32.37;;;6.00;99.90;;;;;;5014919;28;20045;-76
2022/01/14 06:48:57;;;;;;;61.43;31.90;;;6.00;99.90;;;;;;5020486;28;20075;-76
2022/01/14 06:51:23;;;;;;;63.40;32.13;;;6.00;99.90;;;;;;5026491;28;20451;-77
2022/01/14 06:53:50;;;;;;;64.57;31.50;;;6.00;99.90;;;;;;5013937;28;20049;-77
2022/01/14 06:56:16;;;;;;;53.97;32.10;;;6.00;99.90;;;;;;5018548;28;20045;-77
2022/01/14 06:58:42;;;;;;;64.67;30.70;;;6.00;99.90;;;;;;5038728;28;20132;-77
2022/01/14 07:01:08;;;;;;;67.90;31.43;;;6.00;99.90;;;;;;5014653;28;20037;-77
2022/01/14 07:03:34;;;;;;;65.33;32.93;;;6.00;99.90;;;;;;5009422;28;20045;-77
2022/01/14 07:06:00;;;;;;;63.50;31.20;;;6.00;99.90;;;;;;5039697;28;20120;-76
2022/01/14 07:08:25;;;;;;;65.57;32.40;;;6.00;99.90;;;;;;5044166;28;20076;-76
2022/01/14 07:10:52;;;;;;;65.40;32.17;;;5.90;99.90;;;;;;5039534;28;20155;-77
2022/01/14 07:13:18;;;;;;;72.10;32.90;;;6.00;99.90;;;;;;5043528;28;20052;-77
2022/01/14 07:15:44;;;;;;;63.10;30.90;;;5.90;99.90;;;;;;5044954;28;20041;-76
2022/01/14 07:18:10;;;;;;;64.23;31.37;;;6.00;99.90;;;;;;5020275;28;20040;-77
2022/01/14 07:20:37;;;;;;;67.80;30.57;;;6.00;99.90;;;;;;5023229;28;20060;-77
2022/01/14 07:23:03;;;;;;;61.13;30.60;;;5.90;99.90;;;;;;5060144;28;20120;-78
2022/01/14 07:25:29;;;;;;;55.20;31.00;;;5.90;99.90;;;;;;5034566;28;20049;-77
2022/01/14 07:27:57;;;;;;;65.30;30.33;;;6.00;99.90;;;;;;5016617;28;20400;-77
2022/01/14 07:30:23;;;;;;;62.63;30.47;;;6.00;99.90;;;;;;5037151;28;20302;-76
2022/01/14 07:32:49;;;;;;;56.40;30.40;;;6.00;99.90;;;;;;5038571;28;20143;-77
2022/01/14 07:35:15;;;;;;;55.87;31.07;;;6.00;99.90;;;;;;5037116;28;20585;-77
2022/01/14 07:37:42;;;;;;;54.37;30.47;;;6.00;99.90;;;;;;5041006;28;20072;-77
2022/01/14 07:40:08;;;;;;;62.03;30.17;;;6.00;99.90;;;;;;5041305;28;20040;-77
2022/01/14 07:42:34;;;;;;;59.80;30.63;;;6.00;99.90;;;;;;5036928;28;20048;-78
2022/01/14 07:45:02;;;;;;;56.97;31.17;;;6.00;99.90;;;;;;5044036;28;20040;-77
2022/01/14 07:47:28;;;;;;;54.70;29.63;;;6.00;99.90;;;;;;5022885;28;20067;-77
2022/01/14 07:49:54;;;;;;;54.40;30.83;;;6.00;99.90;;;;;;5002524;28;20502;-77
2022/01/14 07:52:19;;;;;;;55.23;28.77;;;6.00;99.90;;;;;;5040161;28;20040;-77
2022/01/14 07:54:45;;;;;;;53.27;29.17;;;6.00;99.90;;;;;;5021261;28;20076;-77
2022/01/14 07:57:12;;;;;;;60.90;30.03;;;6.10;99.90;;;;;;5013835;28;20391;-77
2022/01/14 07:59:37;;;;;;;53.67;29.23;;;6.10;99.90;;;;;;5023748;28;20517;-77
2022/01/14 08:02:05;;;;;;;53.20;29.47;;;6.00;99.90;;;;;;5026734;28;20041;-77
2022/01/14 08:04:34;;;;;;;57.30;28.90;;;6.10;99.90;;;;;;5033521;28;20473;-76
2022/01/14 08:07:08;;;;;;;61.47;30.50;;;6.10;99.90;;;;;;5035708;28;20048;-77
2022/01/14 08:09:35;;;;;;;59.10;29.43;;;6.10;99.90;;;;;;5005024;28;20049;-77
2022/01/14 08:12:01;;;;;;;61.00;27.80;;;6.10;99.90;;;;;;5042713;28;20080;-76
2022/01/14 08:14:26;;;;;;;57.03;28.17;;;6.10;99.90;;;;;;5040130;28;20092;-77
2022/01/14 08:16:52;;;;;;;52.77;28.53;;;6.10;99.90;;;;;;5027039;28;20033;-76
2022/01/14 08:19:19;;;;;;;60.83;28.27;;;6.10;99.90;;;;;;5038071;28;20036;-77
2022/01/14 08:21:45;;;;;;;54.47;28.53;;;6.20;99.90;;;;;;5019933;28;20053;-77
2022/01/14 08:24:10;;;;;;;48.70;28.10;;;6.20;99.90;;;;;;5036366;28;20045;-77
2022/01/14 08:26:36;;;;;;;54.20;27.80;;;6.20;99.90;;;;;;5019856;28;20148;-76
2022/01/14 08:29:02;;;;;;;47.27;26.57;;;6.20;99.90;;;;;;5038654;28;20052;-76
2022/01/14 08:31:28;;;;;;;51.53;27.57;;;6.20;99.90;;;;;;5022758;28;20041;-77
2022/01/14 08:33:53;;;;;;;58.80;28.90;;;6.30;99.90;;;;;;5024430;28;20045;-78
2022/01/14 08:36:23;;;;;;;61.77;28.33;;;6.30;99.90;;;;;;5042123;28;20049;-77
2022/01/14 08:38:49;;;;;;;48.57;26.63;;;6.30;99.90;;;;;;5011644;28;20135;-77
2022/01/14 08:41:15;;;;;;;52.03;27.87;;;6.30;99.90;;;;;;5040949;28;20055;-77
2022/01/14 08:43:41;;;;;;;47.07;26.93;;;6.30;99.90;;;;;;5012756;28;20495;-77
2022/01/14 08:46:07;;;;;;;49.43;27.30;;;6.40;99.90;;;;;;5022542;28;20060;-75
2022/01/14 08:48:34;;;;;;;43.43;26.30;;;6.40;99.90;;;;;;5021960;28;20128;-77
2022/01/14 08:51:00;;;;;;;45.17;25.93;;;6.40;99.90;;;;;;5035045;28;20049;-77
2022/01/14 08:53:27;;;;;;;46.07;24.97;;;6.40;99.90;;;;;;5026975;28;20047;-76
2022/01/14 08:55:53;;;;;;;54.57;25.87;;;6.50;99.90;;;;;;5015645;28;20068;-75
2022/01/14 08:58:19;;;;;;;54.07;25.30;;;6.50;99.90;;;;;;5021362;28;20514;-77
2022/01/14 09:00:44;;;;;;;46.17;25.00;;;6.50;99.90;;;;;;5023225;28;20045;-78
2022/01/14 09:03:10;;;;;;;41.07;24.70;;;6.50;99.90;;;;;;5038907;28;20053;-77
2022/01/14 09:05:36;;;;;;;47.90;24.23;;;6.50;99.90;;;;;;5021429;28;20044;-75
2022/01/14 09:08:02;;;;;;;49.07;24.50;;;6.60;99.90;;;;;;5032679;28;20033;-77
2022/01/14 09:10:29;;;;;;;50.67;23.03;;;6.60;99.90;;;;;;5038884;28;20041;-76
2022/01/14 09:12:55;;;;;;;43.67;22.33;;;6.60;99.90;;;;;;5011838;28;20056;-77
2022/01/14 09:15:21;;;;;;;46.70;22.63;;;6.70;99.90;;;;;;5017635;28;20037;-76
2022/01/14 09:17:47;;;;;;;43.47;21.40;;;6.70;99.90;;;;;;5010407;28;20128;-78
2022/01/14 09:20:13;;;;;;;44.13;22.03;;;6.70;99.90;;;;;;5025438;28;20045;-75
2022/01/14 09:22:41;;;;;;;44.80;21.37;;;6.70;99.90;;;;;;5030221;28;20525;-76
2022/01/14 09:25:08;;;;;;;41.27;19.67;;;6.80;99.90;;;;;;5038535;28;20052;-76
2022/01/14 09:27:35;;;;;;;38.37;20.40;;;6.80;99.90;;;;;;5032159;28;21753;-76
2022/01/14 09:30:03;;;;;;;47.03;20.87;;;6.80;99.90;;;;;;5016303;28;20511;-76
2022/01/14 09:32:30;;;;;;;40.03;19.83;;;6.90;99.90;;;;;;5036605;28;20053;-75
2022/01/14 09:34:56;;;;;;;37.47;18.23;;;6.90;99.90;;;;;;5030271;28;20557;-77
2022/01/14 09:37:21;;;;;;;37.03;18.20;;;6.90;99.90;;;;;;5025214;28;20048;-77
2022/01/14 09:39:47;;;;;;;32.30;17.33;;;7.00;99.90;;;;;;5040183;28;20554;-76
2022/01/14 09:42:14;;;;;;;31.30;17.60;;;7.00;99.90;;;;;;5021745;28;20056;-77
2022/01/14 09:44:43;;;;;;;33.57;16.50;;;7.10;99.90;;;;;;5020440;28;20040;-77
2022/01/14 09:47:09;;;;;;;36.83;16.23;;;7.10;99.90;;;;;;5034647;28;20216;-75
2022/01/14 09:49:36;;;;;;;33.57;17.80;;;7.10;99.90;;;;;;5020629;28;20124;-77
2022/01/14 09:52:03;;;;;;;32.57;17.23;;;7.20;99.90;;;;;;5031838;28;20033;-76
2022/01/14 09:54:29;;;;;;;31.20;16.20;;;7.20;99.90;;;;;;5033241;28;20407;-76
2022/01/14 09:56:54;;;;;;;33.70;15.63;;;7.30;99.90;;;;;;5014269;28;20049;-76
2022/01/14 09:59:20;;;;;;;31.13;15.53;;;7.30;99.90;;;;;;5050976;28;20550;-77
2022/01/14 10:01:48;;;;;;;38.10;16.93;;;7.30;99.90;;;;;;5031622;28;20048;-77
2022/01/14 10:04:15;;;;;;;30.10;14.97;;;7.40;99.90;;;;;;5039694;28;20127;-75
2022/01/14 10:06:43;;;;;;;32.43;15.57;;;7.40;99.90;;;;;;5033269;28;20057;-76
2022/01/14 10:09:12;;;;;;;28.00;14.53;;;7.40;99.90;;;;;;5000683;28;20103;-77
2022/01/14 10:11:40;;;;;;;29.77;15.67;;;7.50;99.90;;;;;;5034830;28;20056;-77
2022/01/14 10:14:08;;;;;;;35.80;15.80;;;7.50;99.90;;;;;;5016394;28;20057;-75
2022/01/14 10:16:34;;;;;;;29.97;13.83;;;7.50;99.90;;;;;;5035552;28;20044;-77
2022/01/14 10:19:02;;;;;;;32.97;14.47;;;7.50;99.90;;;;;;5017391;28;20048;-77
2022/01/14 10:21:32;;;;;;;25.17;14.57;;;7.60;99.90;;;;;;5017876;28;20152;-78
2022/01/14 10:24:01;;;;;;;28.20;14.20;;;7.60;99.90;;;;;;5016873;28;21825;-77
2022/01/14 10:26:44;;;;;;;37.47;16.17;;;7.60;99.90;;;;;;5034241;28;20049;-78
2022/01/14 10:29:10;;;;;;;29.77;14.07;;;7.70;99.90;;;;;;5015774;28;20049;-77
2022/01/14 10:31:37;;;;;;;30.77;12.97;;;7.70;99.90;;;;;;5020510;28;20417;-77
2022/01/14 10:34:10;;;;;;;28.27;12.67;;;7.70;99.90;;;;;;5031915;28;20037;-78
2022/01/14 10:36:36;;;;;;;24.63;13.07;;;7.80;99.90;;;;;;5036118;28;20046;-77
2022/01/14 10:39:17;;;;;;;26.43;11.73;;;7.80;99.90;;;;;;5035493;28;20056;-78
2022/01/14 10:41:43;;;;;;;25.07;11.47;;;7.80;99.90;;;;;;5024635;28;20049;-77
2022/01/14 10:44:23;;;;;;;26.73;11.03;;;7.90;99.90;;;;;;5016394;28;20047;-78
2022/01/14 10:47:09;;;;;;;20.97;10.83;;;7.90;99.90;;;;;;5018493;28;20041;-78
2022/01/14 10:49:37;;;;;;;21.73;10.07;;;7.90;99.90;;;;;;5038373;28;20041;-76
2022/01/14 10:52:13;;;;;;;21.00;9.10;;;7.90;99.90;;;;;;5017241;28;20068;-78
2022/01/14 10:54:41;;;;;;;24.17;9.50;;;7.90;99.90;;;;;;5033162;28;20502;-75
2022/01/14 10:57:13;;;;;;;25.37;9.10;;;7.90;99.90;;;;;;5032622;28;20053;-70
2022/01/14 10:59:39;;;;;;;24.60;8.90;;;7.90;99.90;;;;;;5021577;28;20130;-78
2022/01/14 11:02:32;;;;;;;19.97;8.97;;;7.90;99.90;;;;;;5036584;28;20064;-77
2022/01/14 11:05:04;;;;;;;18.23;8.27;;;8.00;99.90;;;;;;5003773;28;20091;-77
2022/01/14 11:07:29;;;;;;;17.70;7.37;;;8.00;99.90;;;;;;5021358;28;20045;-78
2022/01/14 11:09:57;;;;;;;22.87;7.37;;;8.00;99.90;;;;;;5038721;28;20598;-77
2022/01/14 11:12:23;;;;;;;19.03;7.67;;;7.90;99.90;;;;;;5020690;28;20087;-76
2022/01/14 11:14:49;;;;;;;20.33;6.77;;;7.90;99.90;;;;;;5039257;28;20061;-77
2022/01/14 11:17:15;;;;;;;13.47;7.00;;;7.90;99.90;;;;;;5034534;28;20042;-78
2022/01/14 11:19:45;;;;;;;20.97;7.37;;;8.00;99.90;;;;;;5017292;28;20041;-77
2022/01/14 11:24:55;;;;;;;20.10;5.90;;;8.00;99.90;;;;;;5035856;28;20045;-77
2022/01/14 11:27:21;;;;;;;16.27;5.93;;;8.00;99.90;;;;;;5015530;28;20051;-77
2022/01/14 11:29:48;;;;;;;15.83;6.00;;;8.00;99.90;;;;;;5028872;28;20044;-78
2022/01/14 11:32:14;;;;;;;17.90;5.70;;;8.00;99.90;;;;;;5001751;28;20042;-77
2022/01/14 11:34:43;;;;;;;19.80;6.03;;;8.00;99.90;;;;;;5032476;28;20048;-77
2022/01/14 11:37:11;;;;;;;18.47;5.20;;;8.00;99.90;;;;;;5015547;28;20107;-77
2022/01/14 11:39:39;;;;;;;14.20;5.50;;;7.90;99.90;;;;;;5023530;28;20052;-76
2022/01/14 11:42:12;;;;;;;15.33;5.57;;;8.00;99.90;;;;;;5036661;28;20124;-77
2022/01/14 11:48:01;;;;;;;16.40;5.60;;;8.00;99.90;;;;;;5035310;28;20034;-78
2022/01/14 11:50:48;;;;;;;12.90;5.10;;;8.00;99.90;;;;;;5006477;28;20091;-78
2022/01/14 11:53:52;;;;;;;15.67;5.37;;;8.00;99.90;;;;;;5038022;28;20052;-77
2022/01/14 11:56:52;;;;;;;;;;;8.10;99.90;;;;;;5022895;28;20064;-77
2022/01/14 11:59:46;;;;;;;16.20;5.23;;;8.00;99.90;;;;;;5017641;28;19956;-78
2022/01/14 12:02:40;;;;;;;19.13;4.63;;;8.00;99.90;;;;;;5024121;28;20780;-78
2022/01/14 12:05:20;;;;;;;14.43;4.95;;;8.00;99.90;;;;;;5008565;28;20411;-78
2022/01/14 12:08:15;;;;;;;21.20;5.37;;;8.00;99.90;;;;;;5011923;28;20049;-78
2022/01/14 12:10:43;;;;;;;14.87;5.27;;;8.00;99.90;;;;;;5020818;28;20045;-78
2022/01/14 12:13:49;;;;;;;13.93;5.10;;;8.00;99.90;;;;;;5002727;28;20515;-79
2022/01/14 12:19:07;;;;;;;17.27;4.53;;;8.00;99.90;;;;;;5038362;28;20053;-76
2022/01/14 12:22:02;;;;;;;18.07;5.10;;;8.00;99.90;;;;;;5046900;28;20522;-77
2022/01/14 12:24:40;;;;;;;25.88;5.18;;;8.00;99.90;;;;;;5040500;28;20132;-76
2022/01/14 12:27:39;;;;;;;17.23;4.83;;;8.00;99.90;;;;;;5037072;28;20051;-77
2022/01/14 12:30:08;;;;;;;16.07;5.10;;;8.00;99.90;;;;;;5001212;28;20109;-78
2022/01/14 12:32:37;;;;;;;18.33;5.00;;;8.00;99.90;;;;;;5032225;28;20040;-78
2022/01/14 12:35:06;;;;;;;20.87;5.20;;;8.00;99.90;;;;;;5022504;28;20052;-76
2022/01/14 12:37:34;;;;;;;19.13;5.20;;;8.00;99.90;;;;;;5023182;28;20037;-77
2022/01/14 12:40:09;;;;;;;18.67;5.20;;;8.00;99.90;;;;;;5018940;28;20448;-78
2022/01/14 12:42:36;;;;;;;17.27;5.53;;;8.00;99.90;;;;;;5020622;28;20037;-77
2022/01/14 12:45:05;;;;;;;18.03;5.20;;;8.00;99.90;;;;;;5018309;28;20082;-76
2022/01/14 12:47:35;;;;;;;20.93;5.23;;;8.00;99.90;;;;;;5011226;28;20032;-77
2022/01/14 12:50:04;;;;;;;23.07;5.80;;;8.00;99.90;;;;;;5025042;28;20037;-79
2022/01/14 12:52:37;;;;;;;23.60;6.00;;;8.00;99.90;;;;;;5027336;28;20033;-78
2022/01/14 12:55:07;;;;;;;21.40;4.72;;;8.00;99.90;;;;;;5012982;28;20048;-78
2022/01/14 12:57:33;;;;;;;16.60;4.93;;;8.00;99.90;;;;;;5009749;28;20122;-78
2022/01/14 12:59:59;;;;;;;20.53;5.20;;;8.00;99.90;;;;;;5013024;28;20057;-77
2022/01/14 13:02:29;;;;;;;18.47;5.50;;;7.90;99.90;;;;;;5002324;28;20040;-78
2022/01/14 13:05:03;;;;;;;16.77;5.07;;;8.00;99.90;;;;;;5019428;28;20037;-77
2022/01/14 13:07:29;;;;;;;22.93;6.10;;;7.90;99.90;;;;;;5015932;28;20132;-76
2022/01/14 13:09:55;;;;;;;20.33;5.50;;;7.90;99.90;;;;;;5004467;28;20041;-77
2022/01/14 13:12:27;;;;;;;20.07;5.63;;;7.90;99.90;;;;;;5034185;28;20119;-76
2022/01/14 13:15:00;;;;;;;21.33;6.00;;;7.90;99.90;;;;;;5019978;28;20106;-78
2022/01/14 13:17:30;;;;;;;20.33;5.57;;;7.90;99.90;;;;;;5019368;28;20064;-77